Time;durP1;ratioP1;P1;durP2;ratioP2;P2;SDS_P1;SDS_P2;PMS_P1;PMS_P2;Temp;Humidity;BMP_temperature;BMP_pressure;BME280_temperature;BME280_humidity;BME280_pressure;Samples;Min_cycle;Max_cycle;Signal;HPM_P1;HPM_P2
2022/02/06 00:02:15;;;;;;;30.40;8.88;;;6.40;90.90;;;;;;6205741;23;20497;-61
2022/02/06 00:04:42;;;;;;;37.92;10.13;;;6.30;90.90;;;;;;6204725;23;20005;-60
2022/02/06 00:07:08;;;;;;;27.00;8.90;;;6.40;90.90;;;;;;6203204;23;20000;-61
2022/02/06 00:09:33;;;;;;;27.45;9.90;;;6.40;90.90;;;;;;6205057;23;20047;-59
2022/02/06 00:11:59;;;;;;;30.30;9.23;;;6.30;90.90;;;;;;6205472;23;20468;-60
2022/02/06 00:14:24;;;;;;;28.27;9.38;;;6.30;90.90;;;;;;6204964;23;20008;-60
2022/02/06 00:16:50;;;;;;;24.10;8.63;;;6.30;90.90;;;;;;6203739;23;20012;-59
2022/02/06 00:19:15;;;;;;;26.67;8.15;;;6.30;90.90;;;;;;6201459;23;20047;-60
2022/02/06 00:21:41;;;;;;;36.67;9.77;;;6.30;90.90;;;;;;6200515;23;20453;-61
2022/02/06 00:24:10;;;;;;;25.13;9.00;;;6.30;90.90;;;;;;6203752;23;20031;-60
2022/02/06 00:26:42;;;;;;;26.38;9.05;;;6.30;90.90;;;;;;6204763;23;20011;-60
2022/02/06 00:29:24;;;;;;;31.30;8.20;;;6.30;90.90;;;;;;6204357;23;20165;-59
2022/02/06 00:32:03;;;;;;;23.98;8.93;;;6.30;90.90;;;;;;6204977;23;20012;-60
2022/02/06 00:39:47;;;;;;;31.38;7.65;;;6.30;90.90;;;;;;6205410;23;20043;-61
2022/02/06 00:42:13;;;;;;;28.95;7.90;;;6.20;90.90;;;;;;6176988;23;20359;-61
2022/02/06 00:44:38;;;;;;;24.23;8.07;;;6.20;90.90;;;;;;6202037;23;20000;-62
2022/02/06 00:47:04;;;;;;;20.17;7.65;;;6.20;90.90;;;;;;6202634;23;20151;-60
2022/02/06 00:49:31;;;;;;;19.10;7.60;;;6.20;90.90;;;;;;6203918;23;20012;-59
2022/02/06 00:54:28;;;;;;;24.10;8.10;;;6.20;90.90;;;;;;6205102;23;20013;-62
2022/02/06 00:56:54;;;;;;;21.55;8.20;;;6.20;90.90;;;;;;6202717;23;20350;-58
2022/02/06 00:59:20;;;;;;;24.65;8.10;;;6.20;90.90;;;;;;6203634;23;20422;-59
2022/02/06 01:01:46;;;;;;;27.92;7.88;;;6.20;90.90;;;;;;6205135;23;20074;-60
2022/02/06 01:04:12;;;;;;;17.42;7.00;;;6.20;90.90;;;;;;6206957;23;20008;-59
2022/02/06 01:06:38;;;;;;;22.90;7.07;;;6.20;90.90;;;;;;6203803;23;20059;-59
2022/02/06 01:09:03;;;;;;;19.75;7.15;;;6.20;90.90;;;;;;6176649;23;20008;-58
2022/02/06 01:11:30;;;;;;;21.23;7.07;;;6.10;90.90;;;;;;6201891;23;20005;-61
2022/02/06 01:16:35;;;;;;;13.93;5.85;;;6.10;90.90;;;;;;6205913;23;20343;-59
2022/02/06 01:19:08;;;;;;;18.65;6.57;;;6.10;90.90;;;;;;6205567;23;20020;-60
2022/02/06 01:21:45;;;;;;;22.15;6.72;;;6.10;90.90;;;;;;6202961;23;20008;-61
2022/02/06 01:24:21;;;;;;;22.02;7.07;;;6.10;90.90;;;;;;6201770;23;20070;-60
2022/02/06 01:26:55;;;;;;;18.05;6.90;;;6.10;91.00;;;;;;6179718;23;20493;-60
2022/02/06 01:31:58;;;;;;;21.70;7.18;;;6.10;91.00;;;;;;6204799;23;20008;-61
2022/02/06 01:34:37;;;;;;;18.00;6.22;;;6.10;91.00;;;;;;6203686;23;20011;-62
2022/02/06 01:42:08;;;;;;;16.75;5.80;;;6.00;91.00;;;;;;6204587;23;20091;-57
2022/02/06 02:03:29;;;;;;;14.50;6.55;;;6.00;91.00;;;;;;6201976;23;20362;-61
2022/02/06 02:06:17;;;;;;;15.95;5.50;;;6.00;91.00;;;;;;6204583;23;20419;-60
2022/02/06 02:17:09;;;;;;;15.82;5.82;;;5.90;91.00;;;;;;6203065;23;20672;-60
2022/02/06 02:22:44;;;;;;;11.05;5.53;;;5.90;91.00;;;;;;6205845;23;20107;-60
2022/02/06 02:27:50;;;;;;;16.52;5.10;;;5.90;90.90;;;;;;6206006;23;20005;-61
2022/02/06 02:46:38;;;;;;;12.88;4.55;;;5.90;90.80;;;;;;6205015;23;20051;-60
2022/02/06 02:49:06;;;;;;;14.18;4.63;;;5.90;90.70;;;;;;6205587;23;20020;-59
2022/02/06 02:51:36;;;;;;;14.35;5.10;;;5.80;90.70;;;;;;6204557;23;20027;-62
2022/02/06 02:54:09;;;;;;;12.43;4.63;;;5.80;90.70;;;;;;6203641;23;20091;-62
2022/02/06 03:01:37;;;;;;;15.82;5.07;;;5.80;90.60;;;;;;6210611;23;20001;-58
2022/02/06 03:04:03;;;;;;;11.27;4.68;;;5.80;90.70;;;;;;6236050;23;20067;-61
2022/02/06 03:06:28;;;;;;;12.20;4.40;;;5.70;90.60;;;;;;6233388;23;20150;-61
2022/02/06 03:08:56;;;;;;;9.23;4.40;;;5.80;90.60;;;;;;6234883;23;20079;-59
2022/02/06 03:11:21;;;;;;;13.40;4.43;;;5.70;90.60;;;;;;6235866;23;20491;-60
2022/02/06 03:14:10;;;;;;;11.85;4.50;;;5.70;90.50;;;;;;6237186;23;20055;-58
2022/02/06 03:16:47;;;;;;;9.98;4.50;;;5.70;90.50;;;;;;6237054;23;20050;-60
2022/02/06 03:19:16;;;;;;;10.65;4.40;;;5.70;90.60;;;;;;6211003;23;20027;-61
2022/02/06 03:21:43;;;;;;;7.90;3.85;;;5.70;90.60;;;;;;6207297;23;20086;-61
2022/02/06 03:24:26;;;;;;;8.93;4.57;;;5.70;90.50;;;;;;6208242;23;20436;-58
2022/02/06 03:26:52;;;;;;;12.05;3.80;;;5.70;90.50;;;;;;6212541;23;20036;-59
2022/02/06 03:29:19;;;;;;;6.95;3.90;;;5.70;90.50;;;;;;6235814;23;20011;-60
2022/02/06 03:31:45;;;;;;;12.05;4.25;;;5.90;90.60;;;;;;6183326;23;20011;-60
2022/02/06 03:34:11;;;;;;;8.80;4.00;;;5.70;90.50;;;;;;6208327;23;20032;-58
2022/02/06 03:36:36;;;;;;;6.82;4.00;;;5.70;90.50;;;;;;6208459;23;20011;-61
2022/02/06 03:39:03;;;;;;;9.18;3.70;;;5.70;90.50;;;;;;6236303;23;20059;-61
2022/02/06 03:41:30;;;;;;;9.93;3.78;;;5.70;90.50;;;;;;6185683;23;20364;-59
2022/02/06 03:44:04;;;;;;;11.82;4.25;;;5.70;90.50;;;;;;6209508;23;20374;-59
2022/02/06 03:46:34;;;;;;;7.85;3.83;;;5.60;90.50;;;;;;6209321;23;20004;-61
2022/02/06 03:49:14;;;;;;;7.50;3.83;;;5.70;90.50;;;;;;6209195;23;20070;-58
2022/02/06 03:51:39;;;;;;;9.52;4.00;;;5.60;90.50;;;;;;6235122;23;20008;-58
2022/02/06 03:54:05;;;;;;;8.48;4.03;;;5.60;90.50;;;;;;6235290;23;20553;-60
2022/02/06 03:56:32;;;;;;;9.98;3.88;;;5.60;90.50;;;;;;6184221;23;20023;-60
2022/02/06 03:58:58;;;;;;;11.02;4.03;;;5.60;90.50;;;;;;6181545;23;20496;-60
2022/02/06 04:01:24;;;;;;;9.98;3.90;;;5.60;90.50;;;;;;6207356;23;20004;-62
2022/02/06 04:03:49;;;;;;;10.13;4.15;;;5.60;90.50;;;;;;6184893;23;20492;-61
2022/02/06 04:06:15;;;;;;;8.75;3.53;;;5.60;90.50;;;;;;6236961;23;20008;-61
2022/02/06 04:08:41;;;;;;;7.85;3.67;;;5.50;90.50;;;;;;6236262;23;20023;-62
2022/02/06 04:11:12;;;;;;;7.95;3.42;;;5.60;90.80;;;;;;6232941;23;20582;-61
2022/02/06 04:13:53;;;;;;;8.38;3.70;;;5.60;90.50;;;;;;6234779;23;20079;-60
2022/02/06 04:16:25;;;;;;;7.80;3.90;;;5.60;90.50;;;;;;6234731;23;20081;-61
2022/02/06 04:19:00;;;;;;;6.45;3.30;;;5.60;90.40;;;;;;6209754;23;20303;-60
2022/02/06 04:21:26;;;;;;;10.82;3.40;;;5.60;90.50;;;;;;6211770;23;20000;-60
2022/02/06 04:23:51;;;;;;;6.30;3.40;;;5.50;90.30;;;;;;6207869;23;20026;-59
2022/02/06 04:26:17;;;;;;;8.25;3.03;;;5.50;90.30;;;;;;6207811;23;20004;-60
2022/02/06 04:28:42;;;;;;;9.00;3.35;;;5.50;90.30;;;;;;6234643;23;20004;-61
2022/02/06 04:31:08;;;;;;;6.85;3.10;;;5.50;90.30;;;;;;6236648;23;20004;-59
2022/02/06 04:33:33;;;;;;;10.82;3.55;;;5.50;90.30;;;;;;6236777;23;20414;-60
2022/02/06 04:36:01;;;;;;;6.60;3.33;;;5.50;90.20;;;;;;6236280;23;20004;-62
2022/02/06 05:14:05;;;;;;;5.18;2.60;;;5.50;90.30;;;;;;6235005;23;20417;-60
2022/02/06 05:16:37;;;;;;;6.47;2.78;;;5.50;90.30;;;;;;6215770;23;20409;-61
2022/02/06 05:21:54;;;;;;;;;;;5.50;90.30;;;;;;6234375;23;20221;-61
2022/02/06 05:26:54;;;;;;;5.85;2.80;;;5.50;90.20;;;;;;6236506;23;20402;-58
2022/02/06 05:29:30;;;;;;;6.72;2.47;;;5.50;90.20;;;;;;6210061;23;20575;-61
2022/02/06 05:32:01;;;;;;;7.90;3.13;;;5.50;90.20;;;;;;6234226;23;20108;-63
2022/02/06 05:34:27;;;;;;;10.93;2.35;;;5.50;90.20;;;;;;6234443;23;20039;-60
2022/02/06 05:36:53;;;;;;;5.30;2.45;;;5.50;90.20;;;;;;6236168;23;20414;-61
2022/02/06 05:39:18;;;;;;;3.97;2.53;;;5.50;90.20;;;;;;6235595;23;20497;-61
2022/02/06 05:41:44;;;;;;;7.85;2.78;;;5.50;90.10;;;;;;6234388;23;20292;-61
2022/02/06 05:44:09;;;;;;;6.68;2.63;;;5.50;90.10;;;;;;6234476;23;20377;-62
2022/02/06 05:46:35;;;;;;;5.68;2.67;;;5.50;90.10;;;;;;6233772;23;20339;-61
2022/02/06 05:49:00;;;;;;;9.02;2.80;;;5.50;90.10;;;;;;6208330;23;20019;-60
2022/02/06 05:51:26;;;;;;;6.47;2.58;;;5.50;90.10;;;;;;6209597;23;20016;-62
2022/02/06 05:53:51;;;;;;;7.85;2.55;;;5.60;90.10;;;;;;6235499;23;20004;-60
2022/02/06 05:56:20;;;;;;;7.68;2.83;;;5.50;90.10;;;;;;6159982;23;20020;-61
2022/02/06 05:58:45;;;;;;;5.07;2.83;;;5.60;90.40;;;;;;6235147;23;20012;-61
2022/02/06 06:01:11;;;;;;;6.03;2.67;;;5.60;90.00;;;;;;6208897;23;20054;-59
2022/02/06 06:03:37;;;;;;;6.13;2.80;;;5.60;90.00;;;;;;6210860;23;20066;-59
2022/02/06 06:06:02;;;;;;;4.72;2.67;;;5.50;90.00;;;;;;6210814;23;20004;-60
2022/02/06 06:08:28;;;;;;;8.80;3.05;;;5.60;90.10;;;;;;6235585;23;20042;-62
2022/02/06 06:10:53;;;;;;;6.22;2.80;;;5.60;90.00;;;;;;6235053;23;20077;-61
2022/02/06 06:13:19;;;;;;;5.43;2.67;;;5.60;90.00;;;;;;6235618;23;20360;-59
2022/02/06 06:15:45;;;;;;;6.72;2.67;;;5.60;90.00;;;;;;6236837;23;20076;-62
2022/02/06 06:18:13;;;;;;;6.68;2.80;;;5.60;90.00;;;;;;6186050;23;20149;-61
2022/02/06 06:20:39;;;;;;;4.43;2.22;;;5.60;90.00;;;;;;6235427;23;20512;-60
2022/02/06 06:23:05;;;;;;;5.65;2.70;;;5.60;89.90;;;;;;6183849;23;20893;-61
2022/02/06 06:25:39;;;;;;;4.50;2.60;;;5.60;89.90;;;;;;6182875;23;20008;-59
2022/02/06 06:28:08;;;;;;;10.75;2.80;;;5.60;89.80;;;;;;6189085;23;20080;-60
2022/02/06 06:30:36;;;;;;;5.47;2.83;;;5.60;89.80;;;;;;6209594;23;20028;-60
2022/02/06 06:33:05;;;;;;;4.18;2.40;;;5.60;89.80;;;;;;6186314;23;20332;-59
2022/02/06 06:35:30;;;;;;;7.43;2.60;;;5.60;89.90;;;;;;6235923;23;20087;-62
2022/02/06 06:37:58;;;;;;;6.35;2.80;;;5.60;89.80;;;;;;6208704;23;20043;-59
2022/02/06 06:40:25;;;;;;;5.68;2.30;;;5.60;89.80;;;;;;6235367;23;20092;-59
2022/02/06 06:42:50;;;;;;;7.35;2.70;;;5.60;89.80;;;;;;6210893;23;20004;-60
2022/02/06 06:45:15;;;;;;;3.47;2.13;;;5.40;89.70;;;;;;6236694;23;20008;-62
2022/02/06 06:47:42;;;;;;;8.40;2.95;;;5.60;89.70;;;;;;6235645;23;20008;-58
2022/02/06 06:50:07;;;;;;;4.45;2.75;;;5.60;89.70;;;;;;6234238;23;20012;-62
2022/02/06 06:52:33;;;;;;;6.35;2.65;;;5.60;89.80;;;;;;6235387;23;20064;-60
2022/02/06 06:55:02;;;;;;;12.93;4.22;;;5.60;89.70;;;;;;6210430;23;20038;-61
2022/02/06 06:57:34;;;;;;;24.33;4.60;;;5.60;89.70;;;;;;6210920;23;20044;-62
2022/02/06 07:02:31;;;;;;;21.48;3.70;;;5.60;89.70;;;;;;6209771;23;20465;-59
2022/02/06 07:04:58;;;;;;;19.10;4.22;;;5.60;89.80;;;;;;6207846;23;20019;-59
2022/02/06 07:07:25;;;;;;;30.55;4.90;;;5.60;89.90;;;;;;6236181;23;20334;-58
2022/02/06 07:09:52;;;;;;;32.80;5.88;;;5.60;90.00;;;;;;6236829;23;20055;-62
2022/02/06 07:12:18;;;;;;;21.92;4.43;;;5.60;89.90;;;;;;6184006;23;20007;-59
2022/02/06 07:14:44;;;;;;;61.30;6.82;;;5.60;89.80;;;;;;6183036;23;20004;-62
2022/02/06 07:17:09;;;;;;;41.10;6.28;;;5.60;90.00;;;;;;6208545;23;20031;-59
2022/02/06 07:19:35;;;;;;;38.38;5.75;;;5.60;90.00;;;;;;6208358;23;20380;-60
2022/02/06 07:22:01;;;;;;;38.63;5.30;;;5.60;90.00;;;;;;6236709;23;20000;-60
2022/02/06 07:24:27;;;;;;;29.80;4.35;;;5.70;90.00;;;;;;6185234;23;20270;-59
2022/02/06 07:26:59;;;;;;;32.40;5.85;;;5.60;89.90;;;;;;6183536;23;20049;-62
2022/02/06 07:29:25;;;;;;;42.85;5.28;;;5.60;89.90;;;;;;6209141;23;20008;-61
2022/02/06 07:31:53;;;;;;;21.48;4.18;;;5.70;90.30;;;;;;6234670;23;20083;-60
2022/02/06 07:34:18;;;;;;;33.92;5.47;;;5.70;90.00;;;;;;6184883;23;20004;-62
2022/02/06 07:36:44;;;;;;;26.58;4.97;;;5.60;89.90;;;;;;6237385;23;20016;-59
2022/02/06 07:39:09;;;;;;;33.22;5.00;;;5.60;90.00;;;;;;6234998;23;20374;-61
2022/02/06 07:41:35;;;;;;;24.08;3.60;;;5.70;90.00;;;;;;6207715;23;20089;-62
2022/02/06 07:44:00;;;;;;;20.95;3.72;;;5.60;89.90;;;;;;6235133;23;20004;-60
2022/02/06 07:46:31;;;;;;;26.10;4.13;;;5.70;89.90;;;;;;6208650;23;20004;-60
2022/02/06 07:49:02;;;;;;;24.40;3.70;;;5.70;89.80;;;;;;6210425;23;20071;-60
2022/02/06 07:51:28;;;;;;;22.77;4.22;;;5.70;89.80;;;;;;6209774;23;20058;-62
2022/02/06 07:53:53;;;;;;;28.27;5.38;;;5.70;89.90;;;;;;6233286;23;20008;-62
2022/02/06 07:56:19;;;;;;;23.13;3.60;;;5.70;90.00;;;;;;6236407;23;20064;-62
2022/02/06 07:58:44;;;;;;;28.95;3.72;;;5.70;90.00;;;;;;6184356;23;20012;-61
2022/02/06 08:01:10;;;;;;;19.80;3.40;;;5.70;90.00;;;;;;6236828;23;20012;-59
2022/02/06 08:03:35;;;;;;;23.67;4.00;;;5.70;90.00;;;;;;6236293;23;20582;-62
2022/02/06 08:06:01;;;;;;;17.80;4.05;;;5.70;90.00;;;;;;6208333;23;20370;-59
2022/02/06 08:08:26;;;;;;;20.80;4.28;;;5.70;90.00;;;;;;6234435;23;20000;-61
2022/02/06 08:10:58;;;;;;;21.50;4.22;;;5.70;89.90;;;;;;6234129;23;20012;-59
2022/02/06 08:13:29;;;;;;;31.88;3.90;;;5.70;89.80;;;;;;6236681;23;20004;-61
2022/02/06 08:15:54;;;;;;;27.52;3.88;;;5.70;89.90;;;;;;6209866;23;20519;-60
2022/02/06 08:18:20;;;;;;;22.55;4.10;;;5.70;89.70;;;;;;6234389;23;20095;-60
2022/02/06 08:20:45;;;;;;;12.23;3.40;;;5.70;89.70;;;;;;6234425;23;20068;-59
2022/02/06 08:23:11;;;;;;;20.42;4.35;;;5.70;89.70;;;;;;6234332;23;20099;-59
2022/02/06 08:25:36;;;;;;;15.50;3.58;;;5.70;89.50;;;;;;6183566;23;20003;-59
2022/02/06 08:28:02;;;;;;;16.38;3.78;;;5.70;89.50;;;;;;6209746;23;20062;-61
2022/02/06 08:30:30;;;;;;;11.13;3.10;;;5.70;89.30;;;;;;6181260;23;20035;-62
2022/02/06 08:32:55;;;;;;;15.77;4.13;;;5.70;89.20;;;;;;6234411;23;20628;-59
2022/02/06 08:35:22;;;;;;;15.57;3.67;;;5.70;89.20;;;;;;6206713;23;20064;-60
2022/02/06 08:37:49;;;;;;;19.83;3.60;;;5.70;89.20;;;;;;6235367;23;20004;-62
2022/02/06 08:40:16;;;;;;;12.93;3.83;;;5.70;89.70;;;;;;6209385;23;20045;-60
2022/02/06 08:42:42;;;;;;;8.07;3.42;;;5.70;89.10;;;;;;6236814;23;20000;-59
2022/02/06 08:45:11;;;;;;;12.82;3.58;;;5.80;89.80;;;;;;6207147;23;20007;-61
2022/02/06 08:47:36;;;;;;;12.20;3.50;;;5.80;89.00;;;;;;6232380;23;20073;-59
2022/02/06 08:50:02;;;;;;;14.60;4.35;;;5.80;89.00;;;;;;6205997;23;20004;-61
2022/02/06 08:52:28;;;;;;;14.40;4.07;;;5.80;89.00;;;;;;6206480;23;20008;-62
2022/02/06 08:54:54;;;;;;;12.57;3.67;;;5.80;88.90;;;;;;6207479;23;19996;-59
2022/02/06 08:57:25;;;;;;;8.38;2.67;;;5.80;88.80;;;;;;6233416;23;20034;-61
2022/02/06 08:59:54;;;;;;;8.40;3.05;;;5.80;88.70;;;;;;6228354;23;20011;-59
2022/02/06 09:02:20;;;;;;;12.55;3.28;;;5.80;88.60;;;;;;6233226;23;20360;-62
2022/02/06 09:04:45;;;;;;;9.05;2.90;;;5.80;89.20;;;;;;6234062;23;20030;-61
2022/02/06 09:07:11;;;;;;;9.23;2.55;;;5.80;88.40;;;;;;6208706;23;20326;-59
2022/02/06 09:09:39;;;;;;;7.95;2.97;;;5.80;88.30;;;;;;6206535;23;20441;-62
2022/02/06 09:12:05;;;;;;;10.40;3.28;;;5.90;88.30;;;;;;6207866;23;20030;-59
2022/02/06 09:14:31;;;;;;;7.93;3.03;;;5.90;88.30;;;;;;6232143;23;20030;-60
2022/02/06 09:16:57;;;;;;;11.73;3.45;;;5.90;88.10;;;;;;6233729;23;20092;-59
2022/02/06 09:19:22;;;;;;;7.72;2.53;;;5.90;88.10;;;;;;6234214;23;20011;-60
2022/02/06 09:21:48;;;;;;;9.27;2.75;;;5.90;88.10;;;;;;6206480;23;20028;-61
2022/02/06 09:24:14;;;;;;;14.00;3.33;;;6.00;88.00;;;;;;6205966;23;20000;-59
2022/02/06 09:26:40;;;;;;;13.25;3.05;;;6.00;88.10;;;;;;6205269;23;19996;-61
2022/02/06 09:29:05;;;;;;;11.93;3.05;;;6.10;88.20;;;;;;6181386;23;20484;-59
2022/02/06 09:31:31;;;;;;;13.77;3.53;;;6.00;88.00;;;;;;6235701;23;20011;-62
2022/02/06 09:36:22;;;;;;;19.60;3.50;;;6.10;88.00;;;;;;6206424;23;20000;-60
2022/02/06 09:38:48;;;;;;;12.35;3.55;;;6.10;88.00;;;;;;6203307;23;20469;-61
2022/02/06 09:41:13;;;;;;;20.02;4.13;;;6.20;88.10;;;;;;6178946;23;20020;-60
2022/02/06 09:43:39;;;;;;;19.40;3.85;;;6.20;87.90;;;;;;6232122;23;20479;-60
2022/02/06 09:46:05;;;;;;;12.90;3.67;;;6.20;87.90;;;;;;6206283;23;20012;-61
2022/02/06 09:48:31;;;;;;;21.88;3.97;;;6.30;87.90;;;;;;6207793;23;20000;-61
2022/02/06 09:50:57;;;;;;;23.10;3.97;;;6.30;87.70;;;;;;6233373;23;20008;-60
2022/02/06 09:53:22;;;;;;;21.17;3.63;;;6.40;87.70;;;;;;6233238;23;20140;-62
2022/02/06 09:55:48;;;;;;;24.00;4.00;;;6.30;87.50;;;;;;6232650;23;20078;-60
2022/02/06 09:58:28;;;;;;;27.33;4.28;;;6.40;87.40;;;;;;6181827;23;20019;-59
2022/02/06 10:00:54;;;;;;;37.58;5.30;;;6.40;87.70;;;;;;6188449;23;20310;-61
2022/02/06 10:03:19;;;;;;;39.90;5.90;;;6.50;88.00;;;;;;6232035;23;20000;-60
2022/02/06 10:05:45;;;;;;;44.60;5.68;;;6.50;88.40;;;;;;6180852;23;20111;-59
2022/02/06 10:08:30;;;;;;;33.33;4.90;;;6.50;88.30;;;;;;6231258;23;20016;-58
2022/02/06 10:11:11;;;;;;;35.25;5.10;;;6.60;88.50;;;;;;6233592;23;20026;-59
2022/02/06 10:13:39;;;;;;;39.42;6.28;;;6.60;88.40;;;;;;6235296;23;20020;-59
2022/02/06 10:16:05;;;;;;;39.80;6.65;;;6.70;88.50;;;;;;6207412;23;20087;-60
2022/02/06 10:18:31;;;;;;;60.08;6.53;;;6.70;88.50;;;;;;6233214;23;20146;-58
2022/02/06 10:20:56;;;;;;;68.90;7.53;;;6.80;88.40;;;;;;6206708;23;20075;-61
2022/02/06 10:26:10;;;;;;;44.55;7.28;;;6.80;88.40;;;;;;6216322;23;20012;-59
2022/02/06 10:28:44;;;;;;;55.03;6.80;;;6.80;88.20;;;;;;6235250;23;20020;-62
2022/02/06 10:31:09;;;;;;;53.58;7.32;;;6.90;88.40;;;;;;6185079;23;20546;-59
2022/02/06 10:33:48;;;;;;;45.60;7.38;;;6.90;88.50;;;;;;6206296;23;20015;-60
2022/02/06 10:36:36;;;;;;;102.78;12.38;;;6.90;88.40;;;;;;6228964;23;20004;-61
2022/02/06 10:39:06;;;;;;;71.30;10.02;;;7.00;88.50;;;;;;6184294;23;20015;-62
2022/02/06 10:41:34;;;;;;;75.82;9.43;;;7.00;88.00;;;;;;6209031;23;20083;-62
2022/02/06 10:44:06;;;;;;;83.05;9.35;;;7.00;88.10;;;;;;6232948;23;20011;-61
2022/02/06 10:46:33;;;;;;;93.53;9.95;;;7.10;88.00;;;;;;6234229;23;20077;-59
2022/02/06 10:49:03;;;;;;;70.35;8.65;;;7.20;88.10;;;;;;6230889;23;20050;-59
2022/02/06 10:51:40;;;;;;;63.97;7.57;;;7.10;87.90;;;;;;6209770;23;20345;-59
2022/02/06 10:54:09;;;;;;;68.00;8.52;;;7.20;88.40;;;;;;6180344;23;20019;-59
2022/02/06 10:56:40;;;;;;;92.30;10.00;;;7.20;87.90;;;;;;6202567;23;20024;-60
2022/02/06 10:59:06;;;;;;;47.58;7.32;;;7.30;87.80;;;;;;6172596;23;20016;-59
2022/02/06 11:01:36;;;;;;;84.78;9.07;;;7.30;87.70;;;;;;6175738;23;20025;-60
2022/02/06 11:04:18;;;;;;;52.60;6.80;;;7.30;87.70;;;;;;6176007;23;20665;-61
2022/02/06 11:09:26;;;;;;;49.40;8.18;;;7.40;87.60;;;;;;6200042;23;20059;-59
2022/02/06 11:11:52;;;;;;;54.63;7.50;;;7.50;87.60;;;;;;6173121;23;20008;-61
2022/02/06 11:14:24;;;;;;;57.00;7.55;;;7.50;87.50;;;;;;6201288;23;20378;-59
2022/02/06 11:16:50;;;;;;;64.47;8.88;;;7.50;87.60;;;;;;6174643;23;20063;-61
2022/02/06 11:19:20;;;;;;;46.50;8.07;;;7.50;87.40;;;;;;6200753;23;20438;-61
2022/02/06 11:21:46;;;;;;;72.38;10.25;;;7.50;87.30;;;;;;6201717;23;20482;-61
2022/02/06 11:24:19;;;;;;;75.10;8.15;;;7.60;87.10;;;;;;6200054;23;20005;-58
2022/02/06 11:26:44;;;;;;;80.80;11.38;;;7.60;87.00;;;;;;6173314;23;20015;-61
2022/02/06 11:29:10;;;;;;;82.75;10.40;;;7.60;87.10;;;;;;6174041;23;20111;-58
2022/02/06 11:31:36;;;;;;;75.32;9.88;;;7.60;87.10;;;;;;6199791;23;20001;-62
2022/02/06 11:34:01;;;;;;;122.38;13.18;;;7.60;87.00;;;;;;6199020;23;20146;-62
2022/02/06 11:45:32;;;;;;;71.03;10.63;;;7.80;86.80;;;;;;6150981;23;20119;-62
2022/02/06 11:48:04;;;;;;;88.13;10.82;;;7.80;86.80;;;;;;6175127;23;20454;-60
2022/02/06 11:50:33;;;;;;;145.15;17.02;;;7.80;86.60;;;;;;6174201;23;20007;-62
2022/02/06 11:53:04;;;;;;;103.15;13.80;;;7.80;86.40;;;;;;6149885;23;20087;-60
2022/02/06 11:55:33;;;;;;;102.28;12.30;;;7.90;86.70;;;;;;6203397;23;20005;-62
2022/02/06 11:58:18;;;;;;;131.23;16.30;;;7.90;86.70;;;;;;6203080;23;20020;-64
2022/02/06 12:00:44;;;;;;;123.90;16.23;;;7.90;86.60;;;;;;6202781;23;20000;-60
2022/02/06 12:03:13;;;;;;;115.78;14.48;;;7.90;86.60;;;;;;6201862;23;20012;-59
2022/02/06 12:05:57;;;;;;;92.05;11.52;;;8.00;86.50;;;;;;6201896;23;20129;-59
2022/02/06 12:08:23;;;;;;;102.10;10.70;;;7.90;86.50;;;;;;6176808;23;20087;-61
2022/02/06 12:10:51;;;;;;;114.18;13.57;;;7.90;86.10;;;;;;6203709;23;20032;-60
2022/02/06 12:15:55;;;;;;;128.48;14.85;;;8.00;86.80;;;;;;6231531;23;20919;-61
2022/02/06 12:18:39;;;;;;;92.97;13.25;;;8.10;86.80;;;;;;6206039;23;20016;-58
2022/02/06 12:21:16;;;;;;;80.90;11.38;;;8.10;86.80;;;;;;6183215;23;20080;-60
2022/02/06 12:23:47;;;;;;;103.63;12.85;;;8.20;86.90;;;;;;6182353;23;20039;-61
2022/02/06 12:26:31;;;;;;;133.63;14.55;;;8.20;86.80;;;;;;6182636;23;20004;-62
2022/02/06 12:29:10;;;;;;;91.63;11.90;;;8.20;86.40;;;;;;6233827;23;20413;-60
2022/02/06 12:31:54;;;;;;;101.88;12.90;;;8.20;86.40;;;;;;6207166;23;20688;-61
2022/02/06 12:37:53;;;;;;;86.45;10.77;;;8.30;86.60;;;;;;6172487;23;20093;-60
2022/02/06 12:40:23;;;;;;;117.25;14.15;;;8.30;86.40;;;;;;6184441;23;20163;-62
2022/02/06 12:42:52;;;;;;;93.00;12.15;;;8.30;86.60;;;;;;6207059;23;20146;-61
2022/02/06 12:45:20;;;;;;;126.13;13.63;;;8.30;86.50;;;;;;6206844;23;20079;-59
2022/02/06 12:47:50;;;;;;;103.57;13.88;;;8.40;86.50;;;;;;6235012;23;20082;-62
2022/02/06 12:50:23;;;;;;;104.90;11.77;;;8.40;86.70;;;;;;6234648;23;20013;-59
2022/02/06 12:52:49;;;;;;;112.47;15.18;;;8.40;86.30;;;;;;6234914;23;20000;-60
2022/02/06 12:55:15;;;;;;;166.32;17.73;;;8.40;86.40;;;;;;6182208;23;20000;-61
2022/02/06 12:57:48;;;;;;;99.57;12.45;;;8.40;86.30;;;;;;6204740;23;20013;-62
2022/02/06 13:00:25;;;;;;;77.00;10.70;;;8.50;86.50;;;;;;6182070;23;20004;-61
2022/02/06 13:02:50;;;;;;;104.45;13.23;;;8.50;86.00;;;;;;6235698;23;20000;-61
2022/02/06 13:05:16;;;;;;;89.53;11.80;;;8.50;85.70;;;;;;6236111;23;20059;-62
2022/02/06 13:07:45;;;;;;;69.75;9.50;;;8.50;85.50;;;;;;6233690;23;20562;-62
2022/02/06 13:10:12;;;;;;;57.17;7.65;;;8.50;85.50;;;;;;6206246;23;20028;-61
2022/02/06 13:12:43;;;;;;;68.50;9.80;;;8.50;85.20;;;;;;6208460;23;19996;-59
2022/02/06 13:15:34;;;;;;;74.10;9.65;;;8.50;84.90;;;;;;6208332;23;20004;-60
2022/02/06 13:18:23;;;;;;;69.53;8.73;;;8.50;85.10;;;;;;6188964;23;20159;-62
2022/02/06 13:21:01;;;;;;;93.03;10.93;;;8.50;85.10;;;;;;6231339;23;20011;-62
2022/02/06 13:23:45;;;;;;;82.00;10.68;;;8.50;84.70;;;;;;6207503;23;20011;-61
2022/02/06 13:26:23;;;;;;;69.40;10.23;;;8.50;85.30;;;;;;6207707;23;20634;-59
2022/02/06 13:28:59;;;;;;;61.30;8.88;;;8.50;85.10;;;;;;6207265;23;20004;-59
2022/02/06 13:36:37;;;;;;;83.18;9.82;;;8.60;85.30;;;;;;6204332;23;20004;-59
2022/02/06 13:39:12;;;;;;;64.03;8.25;;;8.60;84.70;;;;;;6182435;23;20402;-60
2022/02/06 13:41:38;;;;;;;;;;;8.60;84.50;;;;;;6205821;23;20382;-58
2022/02/06 13:44:10;;;;;;;;;;;8.60;84.60;;;;;;6203227;23;19899;-59
2022/02/06 13:46:37;;;;;;;82.35;9.35;;;8.60;84.50;;;;;;6225924;23;20017;-60
2022/02/06 13:49:03;;;;;;;89.50;10.68;;;8.70;84.70;;;;;;6202186;23;20027;-60
2022/02/06 13:51:38;;;;;;;85.63;9.68;;;8.70;84.80;;;;;;6204492;23;20083;-61
2022/02/06 13:54:05;;;;;;;104.47;10.82;;;8.70;84.70;;;;;;6206042;23;20098;-59
2022/02/06 13:56:31;;;;;;;69.68;9.93;;;8.70;84.60;;;;;;6234225;23;20027;-61
2022/02/06 13:58:58;;;;;;;81.03;10.38;;;8.70;84.90;;;;;;6205368;23;20407;-59
2022/02/06 14:01:23;;;;;;;142.40;14.55;;;8.70;84.90;;;;;;6231864;23;20004;-61
2022/02/06 14:03:50;;;;;;;104.20;11.82;;;8.80;84.80;;;;;;6201540;23;20093;-59
2022/02/06 14:06:21;;;;;;;90.95;12.80;;;8.80;84.90;;;;;;6231204;23;20004;-60
2022/02/06 14:09:07;;;;;;;80.40;9.38;;;8.80;84.90;;;;;;6155549;23;20000;-61
2022/02/06 14:11:34;;;;;;;;;;;8.80;84.80;;;;;;6208124;23;20008;-59
2022/02/06 14:14:19;;;;;;;88.63;11.65;;;8.80;84.30;;;;;;6200771;23;19938;-58
2022/02/06 14:16:46;;;;;;;86.60;9.43;;;8.90;84.30;;;;;;6200851;23;20016;-62
2022/02/06 14:19:13;;;;;;;73.47;10.85;;;8.80;84.40;;;;;;6228815;23;20339;-61
2022/02/06 14:21:43;;;;;;;90.32;11.30;;;8.80;84.20;;;;;;6204991;23;20004;-59
2022/02/06 14:24:08;;;;;;;98.78;12.00;;;8.70;84.50;;;;;;6205316;23;20434;-62
2022/02/06 14:26:34;;;;;;;81.53;11.38;;;8.90;84.70;;;;;;6204008;23;20036;-59
2022/02/06 14:29:00;;;;;;;99.82;10.43;;;8.90;84.60;;;;;;6176649;23;20012;-59
2022/02/06 14:31:30;;;;;;;90.20;11.23;;;8.90;84.70;;;;;;6231433;23;20000;-62
2022/02/06 14:34:18;;;;;;;71.78;10.07;;;8.90;84.50;;;;;;6206288;23;20363;-62
2022/02/06 14:37:06;;;;;;;94.50;9.60;;;8.90;84.10;;;;;;6203951;23;20000;-58
2022/02/06 14:39:35;;;;;;;88.60;10.77;;;8.90;84.20;;;;;;6232826;23;20019;-62
2022/02/06 14:42:17;;;;;;;99.82;10.90;;;9.00;84.40;;;;;;6204736;23;20030;-59
2022/02/06 14:44:43;;;;;;;88.38;13.20;;;9.00;84.30;;;;;;6231403;23;20083;-60
2022/02/06 14:47:08;;;;;;;77.30;13.15;;;9.00;84.50;;;;;;6232241;23;20039;-61
2022/02/06 14:49:34;;;;;;;114.38;13.75;;;9.00;84.40;;;;;;6234596;23;20095;-61
2022/02/06 14:52:01;;;;;;;92.03;12.18;;;9.10;84.50;;;;;;6230233;23;20498;-59
2022/02/06 14:54:31;;;;;;;112.43;13.70;;;9.10;84.80;;;;;;6230069;23;20474;-59
2022/02/06 14:56:56;;;;;;;114.05;12.90;;;9.10;84.70;;;;;;6202105;23;20027;-59
2022/02/06 14:59:22;;;;;;;108.78;13.95;;;9.10;84.60;;;;;;6227393;23;20008;-62
2022/02/06 15:01:50;;;;;;;142.77;15.63;;;9.10;84.60;;;;;;6201824;23;20008;-61
2022/02/06 15:04:16;;;;;;;150.25;16.05;;;9.10;84.70;;;;;;6233277;23;20003;-60
2022/02/06 15:06:41;;;;;;;144.82;14.88;;;9.20;84.90;;;;;;6229732;23;20004;-62
2022/02/06 15:09:07;;;;;;;120.47;15.23;;;9.20;84.70;;;;;;6153631;23;20004;-62
2022/02/06 15:11:33;;;;;;;134.68;15.43;;;9.20;84.50;;;;;;6202157;23;20000;-60
2022/02/06 15:13:59;;;;;;;144.57;17.85;;;9.20;84.80;;;;;;6228429;23;20011;-61
2022/02/06 15:16:29;;;;;;;123.75;16.17;;;9.20;84.60;;;;;;6150798;23;20015;-59
2022/02/06 15:21:20;;;;;;;140.68;17.30;;;9.30;84.60;;;;;;6228210;23;20015;-61